createdAt,value
2022-11-09T00:01:04.803Z,8.03
2022-11-09T00:03:32.821Z,7.99
2022-11-09T00:06:01.002Z,7.93
2022-11-09T00:08:29.183Z,7.85
2022-11-09T00:11:06.467Z,7.74
2022-11-09T00:13:42.402Z,7.65
2022-11-09T00:16:13.519Z,7.59
2022-11-09T00:18:43.281Z,7.54
2022-11-09T00:21:14.965Z,7.50
2022-11-09T00:23:43.119Z,7.47
2022-11-09T00:26:13.273Z,7.42
2022-11-09T00:28:41.787Z,7.39
2022-11-09T00:31:16.903Z,7.35
2022-11-09T00:33:54.073Z,7.29
2022-11-09T00:36:23.819Z,7.27
2022-11-09T00:38:57.194Z,7.26
2022-11-09T00:41:27.247Z,7.29
2022-11-09T00:43:56.581Z,7.35
2022-11-09T00:46:24.986Z,7.40
2022-11-09T00:48:55.802Z,7.44
2022-11-09T00:51:24.144Z,7.48
2022-11-09T00:53:53.630Z,7.52
2022-11-09T00:56:21.936Z,7.58
2022-11-09T00:58:56.621Z,7.65
2022-11-09T01:01:25.144Z,7.69
2022-11-09T01:03:52.953Z,7.76
2022-11-09T01:06:24.973Z,7.84
2022-11-09T01:08:53.252Z,7.87
2022-11-09T01:11:23.035Z,7.87
2022-11-09T01:13:53.147Z,7.81
2022-11-09T01:16:23.169Z,7.79
2022-11-09T01:18:58.137Z,7.77
2022-11-09T01:21:27.743Z,7.75
2022-11-09T01:23:57.976Z,7.72
2022-11-09T01:26:28.024Z,7.66
2022-11-09T01:28:55.777Z,7.63
2022-11-09T01:31:23.455Z,7.62
2022-11-09T01:33:51.561Z,7.61
2022-11-09T01:36:23.600Z,7.59
2022-11-09T01:38:51.868Z,7.59
2022-11-09T01:41:24.213Z,7.58
2022-11-09T01:44:11.886Z,7.59
2022-11-09T01:46:57.396Z,7.57
2022-11-09T01:49:42.882Z,7.57
2022-11-09T01:52:30.580Z,7.53
2022-11-09T01:55:18.300Z,7.47
2022-11-09T01:57:51.374Z,7.40
2022-11-09T02:00:19.542Z,7.34
2022-11-09T02:02:58.625Z,7.32
2022-11-09T02:05:30.859Z,7.31
2022-11-09T02:08:01.495Z,7.32
2022-11-09T02:10:54.056Z,7.30
2022-11-09T02:13:24.675Z,7.29
2022-11-09T02:15:53.235Z,7.27
2022-11-09T02:18:22.075Z,7.30
2022-11-09T02:20:53.214Z,7.30
2022-11-09T02:23:25.345Z,7.31
2022-11-09T02:25:58.124Z,7.28
2022-11-09T02:28:28.349Z,7.28
2022-11-09T02:30:57.441Z,7.29
2022-11-09T02:33:25.670Z,7.31
2022-11-09T02:35:53.882Z,7.31
2022-11-09T02:38:21.880Z,7.30
2022-11-09T02:40:52.028Z,7.26
2022-11-09T02:43:20.271Z,7.24
2022-11-09T02:45:48.432Z,7.22
2022-11-09T02:48:16.166Z,7.19
2022-11-09T02:50:43.821Z,7.18
2022-11-09T02:53:11.348Z,7.16
2022-11-09T02:55:40.885Z,7.16
2022-11-09T02:58:08.607Z,7.15
2022-11-09T03:00:36.517Z,7.09
2022-11-09T03:03:05.495Z,7.04
2022-11-09T03:05:33.680Z,6.97
2022-11-09T03:08:02.072Z,6.92
2022-11-09T03:10:30.202Z,6.83
2022-11-09T03:12:57.956Z,6.80
2022-11-09T03:15:25.862Z,6.77
2022-11-09T03:17:53.362Z,6.72
2022-11-09T03:20:21.319Z,6.69
2022-11-09T03:22:49.510Z,6.63
2022-11-09T03:25:17.636Z,6.59
2022-11-09T03:27:45.937Z,6.54
2022-11-09T03:30:13.840Z,6.48
2022-11-09T03:32:43.894Z,6.44
2022-11-09T03:35:11.901Z,6.41
2022-11-09T03:37:39.984Z,6.40
2022-11-09T03:40:09.382Z,6.39
2022-11-09T03:42:45.916Z,6.37
2022-11-09T03:45:15.921Z,6.36
2022-11-09T03:47:44.928Z,6.34
2022-11-09T03:50:15.136Z,6.37
2022-11-09T03:52:47.155Z,6.37
2022-11-09T03:55:15.137Z,6.39
2022-11-09T03:57:45.719Z,6.47
2022-11-09T04:00:17.704Z,6.53
2022-11-09T04:02:45.540Z,6.59
2022-11-09T04:05:14.813Z,6.61
2022-11-09T04:07:50.264Z,6.59
2022-11-09T04:10:19.662Z,6.58
2022-11-09T04:12:47.953Z,6.56
2022-11-09T04:15:15.752Z,6.52
2022-11-09T04:17:45.492Z,6.49
2022-11-09T04:20:13.341Z,6.46
2022-11-09T04:22:40.899Z,6.43
2022-11-09T04:25:08.988Z,6.40
2022-11-09T04:27:36.698Z,6.37
2022-11-09T04:30:05.727Z,6.36
2022-11-09T04:32:33.391Z,6.37
2022-11-09T04:35:01.311Z,6.35
2022-11-09T04:37:28.980Z,6.33
2022-11-09T04:39:56.544Z,6.32
2022-11-09T04:42:24.068Z,6.30
2022-11-09T04:44:51.789Z,6.25
2022-11-09T04:47:19.328Z,6.22
2022-11-09T04:49:47.078Z,6.22
2022-11-09T04:52:14.842Z,6.21
2022-11-09T04:54:42.304Z,6.20
2022-11-09T04:57:10.081Z,6.18
2022-11-09T04:59:37.884Z,6.15
2022-11-09T05:02:05.705Z,6.10
2022-11-09T05:04:33.496Z,6.04
2022-11-09T05:07:01.201Z,6.01
2022-11-09T05:09:28.962Z,6.01
2022-11-09T05:11:56.569Z,6.03
2022-11-09T05:14:24.253Z,6.02
2022-11-09T05:16:51.758Z,6.02
2022-11-09T05:19:19.219Z,6.03
2022-11-09T05:21:47.064Z,6.06
2022-11-09T05:24:14.923Z,6.08
2022-11-09T05:26:42.883Z,6.12
2022-11-09T05:29:12.383Z,6.17
2022-11-09T05:31:41.764Z,6.22
2022-11-09T05:34:13.293Z,6.28
2022-11-09T05:36:41.039Z,6.35
2022-11-09T05:39:08.762Z,6.47
2022-11-09T05:41:36.384Z,6.57
2022-11-09T05:44:04.046Z,6.66
2022-11-09T05:46:33.562Z,6.71
2022-11-09T05:49:01.135Z,6.74
2022-11-09T05:51:28.788Z,6.74
2022-11-09T05:53:56.389Z,6.75
2022-11-09T05:56:24.141Z,6.72
2022-11-09T05:58:51.862Z,6.72
2022-11-09T06:01:19.999Z,6.69
2022-11-09T06:03:47.722Z,6.66
2022-11-09T06:06:17.320Z,6.63
2022-11-09T06:08:45.126Z,6.60
2022-11-09T06:11:18.505Z,6.59
2022-11-09T06:13:43.621Z,6.60
2022-11-09T06:16:11.421Z,6.58
2022-11-09T06:18:39.082Z,6.57
2022-11-09T06:21:06.960Z,6.59
2022-11-09T06:23:35.079Z,6.56
2022-11-09T06:26:07.168Z,6.55
2022-11-09T06:28:35.509Z,6.54
2022-11-09T06:31:05.775Z,6.53
2022-11-09T06:33:35.889Z,6.54
2022-11-09T06:36:05.005Z,6.54
2022-11-09T06:38:32.732Z,6.52
2022-11-09T06:41:00.966Z,6.53
2022-11-09T06:43:29.563Z,6.56
2022-11-09T06:45:57.283Z,6.56
2022-11-09T06:48:25.065Z,6.58
2022-11-09T06:50:52.742Z,6.65
2022-11-09T06:53:20.924Z,6.73
2022-11-09T06:55:50.901Z,6.85
2022-11-09T06:58:19.246Z,7.01
2022-11-09T07:00:47.377Z,7.15
2022-11-09T07:03:17.715Z,7.30
2022-11-09T07:05:47.092Z,7.45
2022-11-09T07:08:15.879Z,7.60
2022-11-09T07:10:44.560Z,7.74
2022-11-09T07:13:12.478Z,7.87
2022-11-09T07:15:40.491Z,7.99
2022-11-09T07:18:12.247Z,8.12
2022-11-09T07:20:39.917Z,8.22
2022-11-09T07:23:07.536Z,8.31
2022-11-09T07:25:35.927Z,8.37
2022-11-09T07:28:08.544Z,8.44
2022-11-09T07:30:36.578Z,8.51
2022-11-09T07:33:13.680Z,8.56
2022-11-09T07:35:41.833Z,8.60
2022-11-09T07:38:09.504Z,8.64
2022-11-09T07:40:37.128Z,8.70
2022-11-09T07:43:06.542Z,8.74
2022-11-09T07:45:35.791Z,8.79
2022-11-09T07:48:07.490Z,8.87
2022-11-09T07:50:36.072Z,8.94
2022-11-09T07:53:06.183Z,9.03
2022-11-09T07:55:34.933Z,9.11
2022-11-09T07:58:07.050Z,9.17
2022-11-09T08:00:38.189Z,9.23
2022-11-09T08:03:06.551Z,9.29
2022-11-09T08:05:34.975Z,9.35
2022-11-09T08:08:06.480Z,9.43
2022-11-09T08:10:35.805Z,9.56
2022-11-09T08:13:11.045Z,9.66
2022-11-09T08:15:39.993Z,9.79
2022-11-09T08:18:14.453Z,9.91
2022-11-09T08:20:42.074Z,10.07
2022-11-09T08:23:20.397Z,10.29
2022-11-09T08:25:49.882Z,10.48
2022-11-09T08:28:17.864Z,10.68
2022-11-09T08:30:46.092Z,10.84
2022-11-09T08:33:13.644Z,11.04
2022-11-09T08:35:41.144Z,11.21
2022-11-09T08:38:09.435Z,11.34
2022-11-09T08:40:37.198Z,11.46
2022-11-09T08:43:07.805Z,11.52
2022-11-09T08:45:38.233Z,11.62
2022-11-09T08:48:07.921Z,11.68
2022-11-09T08:50:36.564Z,11.76
2022-11-09T08:53:05.062Z,11.85
2022-11-09T08:55:33.351Z,11.97
2022-11-09T08:58:03.092Z,11.98
2022-11-09T09:00:31.237Z,12.01
2022-11-09T09:03:00.366Z,12.11
2022-11-09T09:05:27.931Z,12.20
2022-11-09T09:07:55.207Z,12.34
2022-11-09T09:10:22.661Z,12.47
2022-11-09T09:12:50.248Z,12.57
2022-11-09T09:15:18.341Z,12.74
2022-11-09T09:17:45.718Z,12.83
2022-11-09T09:20:13.419Z,12.94
2022-11-09T09:22:40.996Z,13.04
2022-11-09T09:25:09.285Z,13.00
2022-11-09T09:27:36.938Z,12.94
2022-11-09T09:30:05.720Z,12.86
2022-11-09T09:32:33.319Z,12.82
2022-11-09T09:35:01.261Z,12.80
2022-11-09T09:37:28.697Z,12.81
2022-11-09T09:39:56.239Z,12.86
2022-11-09T09:42:31.622Z,12.86
2022-11-09T09:45:22.945Z,12.91
2022-11-09T09:48:04.899Z,12.95
2022-11-09T09:50:54.518Z,12.99
2022-11-09T09:53:42.581Z,13.03
2022-11-09T09:56:27.440Z,13.06
2022-11-09T09:59:37.014Z,13.08
2022-11-09T10:02:25.570Z,13.09
2022-11-09T10:04:57.587Z,13.05
2022-11-09T10:07:39.487Z,13.09
2022-11-09T10:10:33.592Z,13.10
2022-11-09T10:13:35.434Z,13.14
2022-11-09T10:16:44.481Z,13.11
2022-11-09T10:19:47.776Z,13.10
2022-11-09T10:22:23.477Z,13.14
2022-11-09T10:27:43.205Z,13.32
2022-11-09T10:30:17.154Z,13.48
2022-11-09T10:32:49.470Z,13.59
2022-11-09T10:35:25.193Z,13.62
2022-11-09T10:37:54.524Z,13.63
2022-11-09T10:40:43.947Z,13.66
2022-11-09T10:43:30.227Z,13.74
2022-11-09T10:46:16.965Z,13.72
2022-11-09T10:49:19.681Z,13.72
2022-11-09T10:52:27.000Z,13.76
2022-11-09T10:55:28.293Z,13.84
2022-11-09T10:58:40.164Z,13.92
2022-11-09T11:01:36.540Z,13.94
2022-11-09T11:04:26.667Z,13.88
2022-11-09T11:07:20.585Z,13.86
2022-11-09T11:10:18.101Z,13.92
2022-11-09T11:13:09.559Z,14.02
2022-11-09T11:15:55.674Z,14.10
2022-11-09T11:18:47.455Z,14.13
2022-11-09T11:21:33.693Z,14.14
2022-11-09T11:24:20.454Z,14.14
2022-11-09T11:27:14.681Z,14.15
2022-11-09T11:30:17.750Z,14.23
2022-11-09T11:33:13.817Z,14.28
2022-11-09T11:36:11.359Z,14.32
2022-11-09T11:39:19.356Z,14.31
2022-11-09T11:42:36.917Z,14.31
2022-11-09T11:45:43.059Z,14.34
2022-11-09T11:49:03.765Z,14.40
2022-11-09T11:51:58.252Z,14.46
2022-11-09T11:55:18.793Z,14.48
2022-11-09T11:58:30.364Z,14.48
2022-11-09T12:01:31.032Z,14.50
2022-11-09T12:04:57.972Z,14.52
2022-11-09T12:08:00.810Z,14.55
2022-11-09T12:10:58.172Z,14.59
2022-11-09T12:14:04.071Z,14.60
2022-11-09T12:17:12.144Z,14.59
2022-11-09T12:20:23.448Z,14.61
2022-11-09T12:23:39.904Z,14.60
2022-11-09T12:26:59.805Z,14.62
2022-11-09T12:29:56.825Z,14.66
2022-11-09T12:32:51.147Z,14.66
2022-11-09T12:35:59.892Z,14.66
2022-11-09T12:38:57.970Z,14.66
2022-11-09T12:41:46.662Z,14.70
2022-11-09T12:44:44.381Z,14.75
2022-11-09T12:47:36.095Z,14.80
2022-11-09T12:50:25.110Z,14.84
2022-11-09T12:53:12.137Z,14.91
2022-11-09T12:56:06.310Z,14.96
2022-11-09T12:58:52.881Z,14.97
2022-11-09T13:01:47.281Z,15.02
2022-11-09T13:04:34.028Z,15.03
2022-11-09T13:07:50.275Z,15.05
2022-11-09T13:10:38.535Z,15.05
2022-11-09T13:13:25.742Z,15.06
2022-11-09T13:16:34.657Z,15.09
2022-11-09T13:19:44.415Z,15.13
2022-11-09T13:22:36.288Z,15.14
2022-11-09T13:25:49.614Z,15.17
2022-11-09T13:28:42.077Z,15.17
2022-11-09T13:32:10.080Z,15.17
2022-11-09T13:35:01.031Z,15.19
2022-11-09T13:37:56.469Z,15.21
2022-11-09T13:40:47.935Z,15.21
2022-11-09T13:43:38.292Z,15.21
2022-11-09T13:46:32.094Z,15.21
2022-11-09T13:49:46.952Z,15.22
2022-11-09T13:52:52.539Z,15.19
2022-11-09T13:55:41.766Z,15.10
2022-11-09T13:58:33.270Z,14.99
2022-11-09T14:01:38.351Z,14.92
2022-11-09T14:04:37.404Z,14.83
2022-11-09T14:07:31.572Z,14.70
2022-11-09T14:10:45.567Z,14.53
2022-11-09T14:14:09.552Z,14.42
2022-11-09T14:17:15.520Z,14.33
2022-11-09T14:20:25.292Z,14.21
2022-11-09T14:23:20.655Z,14.13
2022-11-09T14:26:16.954Z,13.98
2022-11-09T14:29:22.732Z,13.79
2022-11-09T14:32:30.740Z,13.58
2022-11-09T14:35:32.560Z,13.37
2022-11-09T14:38:33.242Z,13.15
2022-11-09T14:41:24.658Z,12.94
2022-11-09T14:44:22.231Z,12.73
2022-11-09T14:47:31.768Z,12.56
2022-11-09T14:50:29.038Z,12.26
2022-11-09T14:53:20.696Z,12.03
2022-11-09T14:56:11.138Z,11.81
2022-11-09T14:58:57.961Z,11.63
2022-11-09T15:02:11.027Z,11.51
2022-11-09T15:05:01.250Z,11.29
2022-11-09T15:07:48.348Z,11.13
2022-11-09T15:10:35.112Z,10.95
2022-11-09T15:13:32.699Z,10.82
2022-11-09T15:16:26.441Z,10.77
2022-11-09T15:19:32.012Z,10.70
2022-11-09T15:22:49.926Z,10.59
2022-11-09T15:25:47.269Z,10.47
2022-11-09T15:28:40.660Z,10.34
2022-11-09T15:31:28.031Z,10.25
2022-11-09T15:34:21.558Z,10.17
2022-11-09T15:37:30.688Z,10.10
2022-11-09T15:40:20.649Z,10.05
2022-11-09T15:43:06.890Z,9.94
2022-11-09T15:45:56.491Z,9.85
2022-11-09T15:48:46.365Z,9.76
2022-11-09T15:51:32.709Z,9.66
2022-11-09T15:54:21.210Z,9.55
2022-11-09T15:57:07.583Z,9.46
2022-11-09T15:59:53.739Z,9.33
2022-11-09T16:02:40.549Z,9.23
2022-11-09T16:05:27.625Z,9.17
2022-11-09T16:08:14.009Z,9.08
2022-11-09T16:11:05.868Z,9.04
2022-11-09T16:13:52.508Z,9.01
2022-11-09T16:16:38.341Z,9.03
2022-11-09T16:19:24.058Z,9.02
2022-11-09T16:22:11.516Z,9.06
2022-11-09T16:24:57.663Z,9.08
2022-11-09T16:27:50.093Z,9.10
2022-11-09T16:30:31.597Z,9.03
2022-11-09T16:33:17.659Z,9.02
2022-11-09T16:36:14.766Z,9.01
2022-11-09T16:39:05.315Z,8.99
2022-11-09T16:41:52.718Z,9.03
2022-11-09T16:44:41.974Z,9.07
2022-11-09T16:47:27.939Z,9.10
2022-11-09T16:50:14.393Z,9.09
2022-11-09T16:53:00.235Z,9.05
2022-11-09T16:55:47.103Z,9.02
2022-11-09T16:58:33.094Z,8.96
2022-11-09T17:01:23.509Z,8.91
2022-11-09T17:04:09.354Z,8.91
2022-11-09T17:06:55.416Z,8.88
2022-11-09T17:09:41.714Z,8.84
2022-11-09T17:12:30.782Z,8.77
2022-11-09T17:15:17.331Z,8.74
2022-11-09T17:18:03.593Z,8.72
2022-11-09T17:20:50.501Z,8.73
2022-11-09T17:23:37.693Z,8.74
2022-11-09T17:26:24.744Z,8.80
2022-11-09T17:29:12.108Z,8.87
2022-11-09T17:31:58.094Z,8.96
2022-11-09T17:34:44.099Z,9.02
2022-11-09T17:37:30.114Z,9.09
2022-11-09T17:40:18.731Z,9.14
2022-11-09T17:43:05.332Z,9.18
2022-11-09T17:45:51.215Z,9.25
2022-11-09T17:48:39.087Z,9.30
2022-11-09T17:51:25.664Z,9.33
2022-11-09T17:54:13.927Z,9.35
2022-11-09T17:57:00.485Z,9.33
2022-11-09T17:59:46.036Z,9.30
2022-11-09T18:02:34.192Z,9.26
2022-11-09T18:05:20.241Z,9.22
2022-11-09T18:08:08.430Z,9.17
2022-11-09T18:10:58.557Z,9.12
2022-11-09T18:13:45.543Z,9.04
2022-11-09T18:16:31.566Z,9.01
2022-11-09T18:19:17.465Z,8.98
2022-11-09T18:22:05.673Z,8.91
2022-11-09T18:24:52.038Z,8.86
2022-11-09T18:27:38.366Z,8.81
2022-11-09T18:30:24.283Z,8.82
2022-11-09T18:33:10.357Z,8.80
2022-11-09T18:36:02.387Z,8.78
2022-11-09T18:38:51.818Z,8.76
2022-11-09T18:41:37.478Z,8.78
2022-11-09T18:44:23.833Z,8.83
2022-11-09T18:47:10.005Z,8.89
2022-11-09T18:49:56.077Z,8.93
2022-11-09T18:52:41.730Z,8.97
2022-11-09T18:55:28.696Z,9.03
2022-11-09T18:58:16.060Z,9.08
2022-11-09T19:01:06.256Z,9.12
2022-11-09T19:03:58.968Z,9.18
2022-11-09T19:06:42.536Z,9.21
2022-11-09T19:09:29.135Z,9.19
2022-11-09T19:12:15.465Z,9.13
2022-11-09T19:15:01.364Z,9.13
2022-11-09T19:17:47.523Z,9.12
2022-11-09T19:20:33.223Z,9.11
2022-11-09T19:23:19.121Z,9.09
2022-11-09T19:26:05.632Z,9.07
2022-11-09T19:28:51.387Z,9.05
2022-11-09T19:31:37.974Z,9.02
2022-11-09T19:34:24.189Z,8.99
2022-11-09T19:37:09.824Z,8.96
2022-11-09T19:39:55.565Z,8.92
2022-11-09T19:42:41.907Z,8.91
2022-11-09T19:45:27.619Z,8.91
2022-11-09T19:48:13.692Z,8.91
2022-11-09T19:50:59.659Z,8.91
2022-11-09T19:53:58.481Z,8.85
2022-11-09T19:56:44.455Z,8.78
2022-11-09T19:59:30.525Z,8.82
2022-11-09T20:02:16.395Z,8.90
2022-11-09T20:05:02.202Z,8.98
2022-11-09T20:07:47.998Z,9.03
2022-11-09T20:10:37.512Z,9.09
2022-11-09T20:13:24.215Z,9.14
2022-11-09T20:16:10.638Z,9.10
2022-11-09T20:18:56.619Z,9.07
2022-11-09T20:21:44.105Z,9.07
2022-11-09T20:24:29.986Z,9.14
2022-11-09T20:27:16.242Z,9.12
2022-11-09T20:30:02.649Z,9.09
2022-11-09T20:32:48.898Z,9.04
2022-11-09T20:35:35.951Z,8.89
2022-11-09T20:38:23.331Z,8.82
2022-11-09T20:41:11.622Z,8.75
2022-11-09T20:43:57.925Z,8.62
2022-11-09T20:46:44.027Z,8.56
2022-11-09T20:49:30.071Z,8.47
2022-11-09T20:52:16.220Z,8.37
2022-11-09T20:55:02.274Z,8.31
2022-11-09T20:57:48.180Z,8.23
2022-11-09T21:00:34.179Z,8.17
2022-11-09T21:03:21.280Z,8.08
2022-11-09T21:06:08.903Z,8.04
2022-11-09T21:08:56.543Z,8.04
2022-11-09T21:12:00.757Z,7.98
2022-11-09T21:14:46.963Z,7.91
2022-11-09T21:17:33.053Z,7.81
2022-11-09T21:20:18.711Z,7.70
2022-11-09T21:23:13.806Z,7.63
2022-11-09T21:26:18.795Z,7.64
2022-11-09T21:29:26.132Z,7.57
2022-11-09T21:32:12.355Z,7.53
2022-11-09T21:34:58.766Z,7.51
2022-11-09T21:37:44.936Z,7.44
2022-11-09T21:40:30.930Z,7.31
2022-11-09T21:43:17.018Z,7.28
2022-11-09T21:46:03.083Z,7.31
2022-11-09T21:48:49.967Z,7.33
2022-11-09T21:51:38.519Z,7.33
2022-11-09T21:54:24.976Z,7.34
2022-11-09T21:57:11.036Z,7.32
2022-11-09T21:59:57.864Z,7.29
2022-11-09T22:02:44.016Z,7.25
2022-11-09T22:05:31.468Z,7.21
2022-11-09T22:08:17.671Z,7.18
2022-11-09T22:11:08.594Z,7.16
2022-11-09T22:14:13.715Z,7.14
2022-11-09T22:17:00.885Z,7.10
2022-11-09T22:20:05.635Z,7.07
2022-11-09T22:22:52.019Z,7.04
2022-11-09T22:25:38.179Z,6.99
2022-11-09T22:28:24.002Z,6.90
2022-11-09T22:31:11.309Z,6.82
2022-11-09T22:33:57.002Z,6.79
2022-11-09T22:36:43.056Z,6.78
2022-11-09T22:39:28.879Z,6.82
2022-11-09T22:42:15.049Z,6.84
2022-11-09T22:45:01.307Z,6.88
2022-11-09T22:47:47.080Z,6.94
2022-11-09T22:50:33.470Z,6.99
2022-11-09T22:53:20.245Z,6.98
2022-11-09T22:56:09.520Z,7.02
2022-11-09T22:58:55.840Z,7.10
2022-11-09T23:01:42.075Z,7.16
2022-11-09T23:04:28.170Z,7.20
2022-11-09T23:07:14.318Z,7.23
2022-11-09T23:10:01.250Z,7.25
2022-11-09T23:12:47.259Z,7.22
2022-11-09T23:15:33.373Z,7.18
2022-11-09T23:18:38.416Z,7.13
2022-11-09T23:21:31.791Z,7.06
2022-11-09T23:24:36.305Z,7.00
2022-11-09T23:27:22.882Z,6.93
2022-11-09T23:30:09.841Z,6.89
2022-11-09T23:32:56.143Z,6.79
2022-11-09T23:35:42.102Z,6.71
2022-11-09T23:38:29.195Z,6.62
2022-11-09T23:41:16.177Z,6.55
2022-11-09T23:44:02.138Z,6.48
2022-11-09T23:46:47.770Z,6.39
2022-11-09T23:49:33.707Z,6.34
2022-11-09T23:52:19.478Z,6.29
2022-11-09T23:55:06.160Z,6.23
2022-11-09T23:57:51.991Z,6.19
